createdAt,value
2017-04-25T00:00:17.911Z,964.75
2017-04-25T00:01:28.162Z,964.76
2017-04-25T00:02:38.420Z,964.75
2017-04-25T00:03:48.679Z,964.78
2017-04-25T00:04:58.931Z,964.73
2017-04-25T00:06:09.179Z,964.75
2017-04-25T00:07:19.117Z,964.71
2017-04-25T00:08:29.370Z,964.78
2017-04-25T00:09:39.622Z,964.77
2017-04-25T00:10:49.563Z,964.77
2017-04-25T00:11:59.825Z,964.72
2017-04-25T00:13:09.770Z,964.84
2017-04-25T00:14:20.026Z,964.83
2017-04-25T00:15:30.282Z,964.8
2017-04-25T00:16:40.535Z,964.73
2017-04-25T00:17:50.475Z,964.78
2017-04-25T00:19:00.726Z,964.82
2017-04-25T00:20:10.981Z,964.8
2017-04-25T00:21:21.227Z,964.79
2017-04-25T00:22:31.484Z,964.77
2017-04-25T00:23:41.451Z,964.66
2017-04-25T00:24:51.707Z,964.79
2017-04-25T00:26:01.973Z,964.84
2017-04-25T00:27:12.229Z,964.84
2017-04-25T00:28:22.484Z,964.85
2017-04-25T00:29:32.741Z,964.85
2017-04-25T00:30:42.992Z,964.87
2017-04-25T00:31:53.243Z,964.87
2017-04-25T00:33:03.183Z,964.91
2017-04-25T00:34:13.434Z,964.8
2017-04-25T00:35:23.378Z,964.91
2017-04-25T00:36:33.322Z,964.96
2017-04-25T00:37:43.578Z,964.92
2017-04-25T00:38:53.534Z,964.97
2017-04-25T00:40:03.475Z,964.99
2017-04-25T00:41:12.787Z,964.92
2017-04-25T00:42:23.041Z,964.93
2017-04-25T00:43:33.293Z,964.95
2017-04-25T00:44:43.549Z,965.01
2017-04-25T00:45:53.799Z,964.92
2017-04-25T00:47:03.732Z,964.98
2017-04-25T00:48:13.349Z,964.96
2017-04-25T00:49:23.604Z,964.88
2017-04-25T00:50:33.857Z,964.98
2017-04-25T00:51:44.139Z,964.92
2017-04-25T00:52:54.394Z,964.9
2017-04-25T00:54:04.655Z,964.68
2017-04-25T00:55:14.908Z,964.91
2017-04-25T00:56:25.169Z,964.91
2017-04-25T00:57:35.426Z,964.9
2017-04-25T00:58:45.677Z,964.93
2017-04-25T00:59:55.933Z,964.97
2017-04-25T01:01:05.877Z,964.95
2017-04-25T01:02:16.122Z,964.86
2017-04-25T01:03:26.062Z,964.89
2017-04-25T01:04:36.317Z,964.78
2017-04-25T01:05:46.583Z,964.66
2017-04-25T01:06:56.834Z,965.05
2017-04-25T01:08:07.087Z,964.93
2017-04-25T01:09:17.348Z,964.99
2017-04-25T01:10:27.861Z,964.98
2017-04-25T01:11:38.113Z,964.9
2017-04-25T01:12:47.739Z,964.95
2017-04-25T01:13:57.997Z,964.92
2017-04-25T01:15:08.248Z,964.89
2017-04-25T01:16:18.195Z,965.06
2017-04-25T01:17:28.457Z,965.05
2017-04-25T01:18:38.715Z,965.07
2017-04-25T01:19:48.966Z,965
2017-04-25T01:20:59.220Z,965.04
2017-04-25T01:22:09.480Z,964.96
2017-04-25T01:23:19.419Z,964.94
2017-04-25T01:24:29.671Z,965.06
2017-04-25T01:25:39.930Z,965.07
2017-04-25T01:26:50.181Z,965.04
2017-04-25T01:28:00.431Z,965.01
2017-04-25T01:29:10.749Z,965.05
2017-04-25T01:30:21.007Z,964.95
2017-04-25T01:31:30.942Z,965
2017-04-25T01:32:41.201Z,965.08
2017-04-25T01:33:51.454Z,965.05
2017-04-25T01:35:01.711Z,965.07
2017-04-25T01:36:11.963Z,965.06
2017-04-25T01:37:21.896Z,965.16
2017-04-25T01:38:32.152Z,965.07
2017-04-25T01:39:42.089Z,965.14
2017-04-25T01:40:52.344Z,965.04
2017-04-25T01:42:02.286Z,965.03
2017-04-25T01:43:12.532Z,965.07
2017-04-25T01:44:22.474Z,965
2017-04-25T01:45:32.728Z,965.1
2017-04-25T01:46:42.981Z,965
2017-04-25T01:47:53.238Z,964.98
2017-04-25T01:49:03.209Z,965.08
2017-04-25T01:50:13.466Z,965.08
2017-04-25T01:51:23.411Z,965.17
2017-04-25T01:52:33.351Z,965.08
2017-04-25T01:53:43.605Z,965.08
2017-04-25T01:54:53.859Z,965.1
2017-04-25T01:56:04.117Z,965.14
2017-04-25T01:57:14.054Z,965.13
2017-04-25T01:58:24.313Z,965.16
2017-04-25T01:59:34.559Z,965.14
2017-04-25T02:00:44.498Z,965.12
2017-04-25T02:01:54.750Z,965.15
2017-04-25T02:03:05.010Z,965.22
2017-04-25T02:04:15.265Z,965.19
2017-04-25T02:05:25.206Z,965.09
2017-04-25T02:06:35.462Z,965.21
2017-04-25T02:07:45.740Z,965.22
2017-04-25T02:08:56.295Z,965.16
2017-04-25T02:10:06.549Z,965.24
2017-04-25T02:11:16.498Z,965.2
2017-04-25T02:12:26.746Z,965.12
2017-04-25T02:13:37.004Z,965.17
2017-04-25T02:14:46.945Z,965.17
2017-04-25T02:15:57.194Z,965.31
2017-04-25T02:17:07.440Z,965.18
2017-04-25T02:18:17.692Z,965.27
2017-04-25T02:19:27.643Z,965.31
2017-04-25T02:20:37.900Z,965.37
2017-04-25T02:21:48.151Z,965.37
2017-04-25T02:22:58.401Z,965.33
2017-04-25T02:24:08.673Z,965.28
2017-04-25T02:25:18.927Z,965.41
2017-04-25T02:26:29.177Z,965.38
2017-04-25T02:27:39.433Z,965.37
2017-04-25T02:28:49.387Z,965.34
2017-04-25T02:29:59.644Z,965.37
2017-04-25T02:31:09.269Z,965.42
2017-04-25T02:32:19.521Z,965.35
2017-04-25T02:33:29.774Z,965.32
2017-04-25T02:34:40.028Z,965.35
2017-04-25T02:35:49.971Z,965.41
2017-04-25T02:37:00.227Z,965.36
2017-04-25T02:38:10.169Z,965.29
2017-04-25T02:39:20.422Z,965.33
2017-04-25T02:40:30.686Z,965.29
2017-04-25T02:41:40.628Z,965.31
2017-04-25T02:42:50.883Z,965.28
2017-04-25T02:44:01.142Z,965.31
2017-04-25T02:45:11.097Z,965.31
2017-04-25T02:46:21.352Z,965.38
2017-04-25T02:47:31.615Z,965.37
2017-04-25T02:48:41.868Z,965.4
2017-04-25T02:49:51.863Z,965.37
2017-04-25T02:51:02.113Z,965.39
2017-04-25T02:52:12.361Z,965.44
2017-04-25T02:53:22.608Z,965.48
2017-04-25T02:54:32.873Z,965.46
2017-04-25T02:55:43.137Z,965.41
2017-04-25T02:56:53.383Z,965.52
2017-04-25T02:58:03.633Z,965.43
2017-04-25T02:59:13.258Z,965.41
2017-04-25T03:00:23.518Z,965.49
2017-04-25T03:01:33.769Z,965.36
2017-04-25T03:02:44.024Z,965.48
2017-04-25T03:03:54.278Z,965.5
2017-04-25T03:05:04.535Z,965.37
2017-04-25T03:06:14.475Z,965.48
2017-04-25T03:07:24.727Z,965.49
2017-04-25T03:08:35.024Z,965.44
2017-04-25T03:09:45.287Z,965.5
2017-04-25T03:10:55.538Z,965.38
2017-04-25T03:12:05.792Z,965.44
2017-04-25T03:13:15.729Z,965.6
2017-04-25T03:14:25.980Z,965.63
2017-04-25T03:15:36.234Z,965.62
2017-04-25T03:16:46.173Z,965.53
2017-04-25T03:17:56.421Z,965.55
2017-04-25T03:19:06.676Z,965.57
2017-04-25T03:20:16.934Z,965.57
2017-04-25T03:21:26.876Z,965.5
2017-04-25T03:22:37.124Z,965.36
2017-04-25T03:23:47.388Z,965.53
2017-04-25T03:24:57.648Z,965.49
2017-04-25T03:26:07.897Z,965.48
2017-04-25T03:27:18.154Z,965.49
2017-04-25T03:28:28.406Z,965.59
2017-04-25T03:29:38.661Z,965.53
2017-04-25T03:30:48.920Z,965.34
2017-04-25T03:31:58.858Z,965.57
2017-04-25T03:33:09.117Z,965.54
2017-04-25T03:34:19.373Z,965.53
2017-04-25T03:35:29.630Z,965.55
2017-04-25T03:36:39.576Z,965.58
2017-04-25T03:37:49.835Z,965.47
2017-04-25T03:39:00.089Z,965.54
2017-04-25T03:40:10.341Z,965.63
2017-04-25T03:41:20.278Z,965.58
2017-04-25T03:42:30.535Z,965.68
2017-04-25T03:43:40.790Z,965.63
2017-04-25T03:44:51.052Z,965.68
2017-04-25T03:46:00.677Z,965.7
2017-04-25T03:47:10.302Z,965.87
2017-04-25T03:48:20.552Z,965.72
2017-04-25T03:49:30.805Z,965.72
2017-04-25T03:50:41.063Z,965.66
2017-04-25T03:51:51.317Z,965.76
2017-04-25T03:53:01.575Z,965.78
2017-04-25T03:54:11.828Z,965.77
2017-04-25T03:55:21.769Z,965.84
2017-04-25T03:56:31.703Z,965.89
2017-04-25T03:57:41.957Z,965.82
2017-04-25T03:58:51.914Z,965.83
2017-04-25T04:00:02.161Z,965.62
2017-04-25T04:01:12.129Z,965.79
2017-04-25T04:02:22.388Z,965.78
2017-04-25T04:03:32.639Z,965.9
2017-04-25T04:04:42.585Z,965.93
2017-04-25T04:05:52.835Z,965.86
2017-04-25T04:07:03.089Z,966.07
2017-04-25T04:08:13.027Z,965.92
2017-04-25T04:09:22.977Z,966.03
2017-04-25T04:10:33.264Z,965.94
2017-04-25T04:11:43.206Z,965.89
2017-04-25T04:12:53.463Z,965.99
2017-04-25T04:14:03.731Z,966.11
2017-04-25T04:15:13.983Z,965.99
2017-04-25T04:16:24.237Z,965.92
2017-04-25T04:17:34.181Z,966.02
2017-04-25T04:18:44.436Z,966.02
2017-04-25T04:19:54.691Z,966.12
2017-04-25T04:21:04.948Z,966.21
2017-04-25T04:22:14.886Z,966.19
2017-04-25T04:23:24.816Z,966.11
2017-04-25T04:24:35.074Z,966
2017-04-25T04:25:45.015Z,966.04
2017-04-25T04:26:55.268Z,966.2
2017-04-25T04:28:05.208Z,966.2
2017-04-25T04:29:15.151Z,966.32
2017-04-25T04:30:25.413Z,966.34
2017-04-25T04:31:35.668Z,966.41
2017-04-25T04:32:45.927Z,966.38
2017-04-25T04:33:56.191Z,966.36
2017-04-25T04:35:06.447Z,966.43
2017-04-25T04:36:16.712Z,966.44
2017-04-25T04:37:26.966Z,966.36
2017-04-25T04:38:37.225Z,966.43
2017-04-25T04:39:47.481Z,966.44
2017-04-25T04:40:57.740Z,966.37
2017-04-25T04:42:08.006Z,966.44
2017-04-25T04:43:17.964Z,966.35
2017-04-25T04:44:28.222Z,966.45
2017-04-25T04:45:38.472Z,966.63
2017-04-25T04:46:48.722Z,966.55
2017-04-25T04:47:58.974Z,966.55
2017-04-25T04:49:08.918Z,966.37
2017-04-25T04:50:19.172Z,966.61
2017-04-25T04:51:29.429Z,966.49
2017-04-25T04:52:39.678Z,966.54
2017-04-25T04:53:49.932Z,966.64
2017-04-25T04:55:00.181Z,966.69
2017-04-25T04:56:10.484Z,966.57
2017-04-25T04:57:20.791Z,966.62
2017-04-25T04:58:31.068Z,966.74
2017-04-25T04:59:41.319Z,966.55
2017-04-25T05:00:51.576Z,966.75
2017-04-25T05:02:01.828Z,966.69
2017-04-25T05:03:12.094Z,966.69
2017-04-25T05:04:22.355Z,966.79
2017-04-25T05:05:32.605Z,966.82
2017-04-25T05:06:42.859Z,966.76
2017-04-25T05:07:53.115Z,966.91
2017-04-25T05:09:03.376Z,966.84
2017-04-25T05:10:13.641Z,966.87
2017-04-25T05:11:23.897Z,966.92
2017-04-25T05:12:34.154Z,966.83
2017-04-25T05:13:44.417Z,966.77
2017-04-25T05:14:54.675Z,966.88
2017-04-25T05:16:04.926Z,966.91
2017-04-25T05:17:15.177Z,966.85
2017-04-25T05:18:25.434Z,966.92
2017-04-25T05:19:35.694Z,967
2017-04-25T05:20:45.946Z,967.07
2017-04-25T05:21:56.202Z,966.95
2017-04-25T05:23:06.452Z,966.91
2017-04-25T05:24:16.705Z,966.9
2017-04-25T05:25:26.964Z,966.94
2017-04-25T05:26:36.910Z,966.98
2017-04-25T05:27:47.160Z,966.94
2017-04-25T05:28:57.419Z,966.82
2017-04-25T05:30:07.676Z,967.03
2017-04-25T05:31:17.926Z,966.95
2017-04-25T05:32:28.175Z,967.01
2017-04-25T05:33:38.426Z,967.06
2017-04-25T05:34:48.684Z,967.05
2017-04-25T05:35:58.622Z,967.08
2017-04-25T05:37:08.879Z,967.08
2017-04-25T05:38:19.127Z,967.06
2017-04-25T05:39:29.069Z,967.09
2017-04-25T05:40:39.327Z,967.12
2017-04-25T05:41:49.579Z,967.1
2017-04-25T05:42:59.539Z,967.29
2017-04-25T05:44:09.791Z,967.21
2017-04-25T05:45:20.037Z,967.32
2017-04-25T05:46:30.319Z,967.22
2017-04-25T05:47:40.567Z,967.3
2017-04-25T05:48:50.823Z,967.25
2017-04-25T05:50:01.076Z,967.23
2017-04-25T05:51:11.326Z,967.33
2017-04-25T05:52:21.271Z,967.3
2017-04-25T05:53:31.540Z,967.22
2017-04-25T05:54:41.803Z,967.3
2017-04-25T05:55:51.754Z,967.34
2017-04-25T05:57:01.698Z,967.23
2017-04-25T05:58:11.949Z,967.37
2017-04-25T05:59:21.889Z,967.27
2017-04-25T06:00:31.841Z,967.14
2017-04-25T06:01:41.792Z,967.3
2017-04-25T06:02:52.051Z,967.35
2017-04-25T06:04:02.342Z,967.31
2017-04-25T06:05:12.289Z,967.4
2017-04-25T06:06:22.231Z,967.32
2017-04-25T06:07:32.491Z,967.42
2017-04-25T06:08:42.748Z,967.48
2017-04-25T06:09:53.028Z,967.47
2017-04-25T06:11:02.669Z,967.48
2017-04-25T06:12:12.290Z,967.43
2017-04-25T06:13:22.225Z,967.42
2017-04-25T06:14:32.481Z,967.53
2017-04-25T06:15:42.763Z,967.64
2017-04-25T06:16:53.016Z,967.59
2017-04-25T06:18:03.272Z,967.58
2017-04-25T06:19:13.248Z,967.68
2017-04-25T06:20:23.196Z,967.58
2017-04-25T06:21:33.450Z,967.66
2017-04-25T06:22:43.696Z,967.72
2017-04-25T06:23:53.947Z,967.75
2017-04-25T06:25:03.887Z,967.71
2017-04-25T06:26:13.828Z,967.76
2017-04-25T06:27:23.764Z,967.73
2017-04-25T06:28:34.013Z,967.79
2017-04-25T06:29:44.272Z,967.73
2017-04-25T06:30:54.523Z,967.72
2017-04-25T06:32:04.460Z,967.76
2017-04-25T06:33:14.720Z,967.76
2017-04-25T06:34:24.670Z,967.81
2017-04-25T06:35:34.931Z,967.75
2017-04-25T06:36:45.184Z,967.81
2017-04-25T06:37:55.443Z,967.8
2017-04-25T06:39:05.382Z,967.83
2017-04-25T06:40:15.329Z,967.95
2017-04-25T06:41:25.582Z,967.89
2017-04-25T06:42:35.519Z,967.91
2017-04-25T06:44:58.418Z,967.87
2017-04-25T06:46:08.670Z,967.93
2017-04-25T06:47:18.921Z,967.82
2017-04-25T06:48:28.876Z,967.9
2017-04-25T06:49:39.138Z,967.97
2017-04-25T06:50:49.393Z,967.96
2017-04-25T06:51:59.650Z,967.93
2017-04-25T06:53:09.906Z,968
2017-04-25T06:54:20.158Z,968.04
2017-04-25T06:55:30.409Z,967.98
2017-04-25T06:56:40.354Z,967.88
2017-04-25T06:57:50.635Z,968.16
2017-04-25T06:59:00.893Z,968.17
2017-04-25T07:00:10.835Z,968.25
2017-04-25T07:01:21.093Z,968.26
2017-04-25T07:02:31.340Z,968.16
2017-04-25T07:03:41.286Z,968.12
2017-04-25T07:04:51.549Z,968.13
2017-04-25T07:06:01.797Z,968.14
2017-04-25T07:07:12.048Z,968.14
2017-04-25T07:08:21.987Z,968.21
2017-04-25T07:09:32.270Z,968.16
2017-04-25T07:10:42.220Z,968.07
2017-04-25T07:11:52.479Z,968.15
2017-04-25T07:13:02.738Z,968.13
2017-04-25T07:14:12.690Z,968.28
2017-04-25T07:15:22.957Z,968.27
2017-04-25T07:16:33.210Z,968.28
2017-04-25T07:17:43.471Z,968.27
2017-04-25T07:18:53.408Z,968.29
2017-04-25T07:20:03.039Z,968.31
2017-04-25T07:21:12.985Z,968.31
2017-04-25T07:22:22.925Z,968.3
2017-04-25T07:23:33.183Z,968.17
2017-04-25T07:24:43.436Z,968.25
2017-04-25T07:25:53.379Z,968.33
2017-04-25T07:27:03.636Z,968.42
2017-04-25T07:28:13.894Z,968.28
2017-04-25T07:29:24.156Z,968.36
2017-04-25T07:30:34.423Z,968.41
2017-04-25T07:31:44.368Z,968.42
2017-04-25T07:32:54.625Z,968.5
2017-04-25T07:34:04.568Z,968.4
2017-04-25T07:35:14.202Z,968.45
2017-04-25T07:36:24.452Z,968.49
2017-04-25T07:37:34.708Z,968.41
2017-04-25T07:38:44.968Z,968.38
2017-04-25T07:39:55.225Z,968.36
2017-04-25T07:41:05.485Z,968.2
2017-04-25T07:42:15.427Z,968.33
2017-04-25T07:43:25.693Z,968.38
2017-04-25T07:44:35.966Z,968.37
2017-04-25T07:45:46.225Z,968.49
2017-04-25T07:46:56.482Z,968.52
2017-04-25T07:48:06.736Z,968.45
2017-04-25T07:49:16.685Z,968.4
2017-04-25T07:50:26.627Z,968.46
2017-04-25T07:51:36.882Z,968.4
2017-04-25T07:52:47.134Z,968.44
2017-04-25T07:53:57.392Z,968.35
2017-04-25T07:55:07.647Z,968.46
2017-04-25T07:56:17.594Z,968.49
2017-04-25T07:57:27.538Z,968.38
2017-04-25T07:58:37.485Z,968.36
2017-04-25T07:59:47.746Z,968.41
2017-04-25T08:00:58.005Z,968.3
2017-04-25T08:02:07.947Z,968.35
2017-04-25T08:03:17.897Z,968.41
2017-04-25T08:04:28.153Z,968.42
2017-04-25T08:05:38.099Z,968.44
2017-04-25T08:06:48.356Z,968.53
2017-04-25T08:07:58.310Z,968.41
2017-04-25T08:09:07.947Z,968.5
2017-04-25T08:10:17.901Z,968.51
2017-04-25T08:11:27.845Z,968.49
2017-04-25T08:12:38.103Z,968.54
2017-04-25T08:13:48.366Z,968.39
2017-04-25T08:14:58.630Z,968.59
2017-04-25T08:16:08.888Z,968.5
2017-04-25T08:17:19.145Z,968.52
2017-04-25T08:18:29.399Z,968.46
2017-04-25T08:19:39.657Z,968.62
2017-04-25T08:20:49.295Z,968.56
2017-04-25T08:21:59.558Z,968.59
2017-04-25T08:23:09.807Z,968.72
2017-04-25T08:24:19.750Z,968.73
2017-04-25T08:25:29.693Z,968.63
2017-04-25T08:26:39.947Z,968.67
2017-04-25T08:27:50.210Z,968.68
2017-04-25T08:29:00.174Z,968.66
2017-04-25T08:30:10.122Z,968.77
2017-04-25T08:31:20.064Z,968.72
2017-04-25T08:32:30.007Z,968.79
2017-04-25T08:33:40.274Z,968.9
2017-04-25T08:34:50.538Z,968.92
2017-04-25T08:36:00.798Z,968.92
2017-04-25T08:37:11.059Z,969.04
2017-04-25T08:38:21.318Z,969.02
2017-04-25T08:39:31.270Z,969.07
2017-04-25T08:40:41.530Z,968.88
2017-04-25T08:41:51.790Z,968.92
2017-04-25T08:43:02.051Z,968.97
2017-04-25T08:44:12.319Z,968.94
2017-04-25T08:45:22.575Z,968.92
2017-04-25T08:46:32.833Z,968.81
2017-04-25T08:47:43.099Z,968.84
2017-04-25T08:48:53.367Z,968.94
2017-04-25T08:50:03.316Z,968.97
2017-04-25T08:51:13.271Z,968.99
2017-04-25T08:52:23.531Z,968.89
2017-04-25T08:53:33.803Z,968.78
2017-04-25T08:54:44.057Z,968.83
2017-04-25T08:55:54.309Z,968.88
2017-04-25T08:57:04.569Z,968.91
2017-04-25T08:58:14.835Z,968.9
2017-04-25T08:59:25.097Z,968.77
2017-04-25T09:00:35.347Z,968.83
2017-04-25T09:01:45.608Z,968.87
2017-04-25T09:02:55.873Z,968.8
2017-04-25T09:04:05.819Z,968.79
2017-04-25T09:05:15.768Z,968.74
2017-04-25T09:06:26.023Z,968.88
2017-04-25T09:07:36.283Z,968.86
2017-04-25T09:08:46.234Z,968.88
2017-04-25T09:09:56.189Z,968.89
2017-04-25T09:11:06.450Z,968.91
2017-04-25T09:12:16.709Z,968.93
2017-04-25T09:13:26.658Z,968.87
2017-04-25T09:14:36.925Z,968.98
2017-04-25T09:15:46.873Z,968.87
2017-04-25T09:16:57.143Z,968.84
2017-04-25T09:18:07.404Z,969.04
2017-04-25T09:19:17.036Z,969.11
2017-04-25T09:20:27.297Z,969.26
2017-04-25T09:21:37.561Z,969.25
2017-04-25T09:22:47.820Z,969.32
2017-04-25T09:23:58.085Z,969.3
2017-04-25T09:25:08.344Z,969.18
2017-04-25T09:26:18.615Z,969.2
2017-04-25T09:27:28.883Z,969.15
2017-04-25T09:28:39.142Z,969.27
2017-04-25T09:29:49.088Z,969.17
2017-04-25T09:30:59.351Z,969.29
2017-04-25T09:32:09.610Z,969.21
2017-04-25T09:33:19.889Z,969.25
2017-04-25T09:34:30.158Z,969.2
2017-04-25T09:35:39.793Z,969.08
2017-04-25T09:36:49.737Z,969.17
2017-04-25T09:37:59.999Z,969.11
2017-04-25T09:39:09.945Z,969.29
2017-04-25T09:40:20.217Z,969.2
2017-04-25T09:41:30.158Z,969.29
2017-04-25T09:42:40.419Z,969.3
2017-04-25T09:43:50.365Z,969.32
2017-04-25T09:45:00.310Z,969.31
2017-04-25T09:46:10.256Z,969.36
2017-04-25T09:47:20.520Z,969.27
2017-04-25T09:48:30.781Z,969.43
2017-04-25T09:49:41.048Z,969.3
2017-04-25T09:50:51.004Z,969.29
2017-04-25T09:52:00.955Z,969.38
2017-04-25T09:53:11.213Z,969.3
2017-04-25T09:54:21.169Z,969.38
2017-04-25T09:55:31.440Z,969.39
2017-04-25T09:56:41.383Z,969.4
2017-04-25T09:57:51.641Z,969.47
2017-04-25T09:59:01.908Z,969.35
2017-04-25T10:00:12.192Z,969.39
2017-04-25T10:01:22.461Z,969.49
2017-04-25T10:02:32.726Z,969.47
2017-04-25T10:03:42.672Z,969.35
2017-04-25T10:04:52.935Z,969.46
2017-04-25T10:06:03.199Z,969.43
2017-04-25T10:07:13.138Z,969.54
2017-04-25T10:08:23.394Z,969.51
2017-04-25T10:09:33.657Z,969.56
2017-04-25T10:10:43.620Z,969.57
2017-04-25T10:11:53.567Z,969.54
2017-04-25T10:13:03.510Z,969.62
2017-04-25T10:14:14.295Z,969.58
2017-04-25T10:15:24.250Z,969.54
2017-04-25T10:16:34.510Z,969.59
2017-04-25T10:17:44.768Z,969.61
2017-04-25T10:18:55.034Z,969.72
2017-04-25T10:20:05.350Z,969.71
2017-04-25T10:21:15.602Z,969.59
2017-04-25T10:22:25.551Z,969.63
2017-04-25T10:23:35.812Z,969.76
2017-04-25T10:24:46.079Z,969.52
2017-04-25T10:25:56.274Z,969.65
2017-04-25T10:27:06.223Z,969.56
2017-04-25T10:28:16.171Z,969.63
2017-04-25T10:29:26.126Z,969.6
2017-04-25T10:30:36.400Z,969.63
2017-04-25T10:31:46.671Z,969.53
2017-04-25T10:32:56.931Z,969.56
2017-04-25T10:34:07.197Z,969.55
2017-04-25T10:35:17.467Z,969.56
2017-04-25T10:36:27.728Z,969.63
2017-04-25T10:37:37.994Z,969.62
2017-04-25T10:38:48.264Z,969.59
2017-04-25T10:39:58.529Z,969.53
2017-04-25T10:41:08.161Z,969.56
2017-04-25T10:42:18.426Z,969.59
2017-04-25T10:43:28.686Z,969.56
2017-04-25T10:44:38.968Z,969.59
2017-04-25T10:45:49.245Z,969.59
2017-04-25T10:46:59.202Z,969.69
2017-04-25T10:48:09.516Z,969.64
2017-04-25T10:49:19.839Z,969.57
2017-04-25T10:50:30.105Z,969.64
2017-04-25T10:51:40.371Z,969.57
2017-04-25T10:52:49.691Z,969.67
2017-04-25T10:53:59.967Z,969.62
2017-04-25T10:55:09.921Z,969.64
2017-04-25T10:56:19.864Z,969.55
2017-04-25T10:57:30.129Z,969.72
2017-04-25T10:58:40.080Z,969.77
2017-04-25T10:59:50.338Z,969.81
2017-04-25T11:01:00.604Z,969.8
2017-04-25T11:02:10.876Z,969.68
2017-04-25T11:03:20.826Z,969.81
2017-04-25T11:04:31.088Z,969.82
2017-04-25T11:05:41.360Z,969.79
2017-04-25T11:06:50.992Z,969.81
2017-04-25T11:08:01.250Z,969.83
2017-04-25T11:09:11.513Z,969.87
2017-04-25T11:10:21.152Z,969.9
2017-04-25T11:11:31.415Z,969.87
2017-04-25T11:12:41.680Z,969.83
2017-04-25T11:13:51.631Z,969.84
2017-04-25T11:15:01.578Z,969.93
2017-04-25T11:16:11.531Z,969.81
2017-04-25T11:17:21.793Z,969.94
2017-04-25T11:18:31.752Z,969.98
2017-04-25T11:19:42.020Z,970.07
2017-04-25T11:20:52.280Z,970
2017-04-25T11:22:02.536Z,970
2017-04-25T11:23:12.230Z,969.79
2017-04-25T11:24:22.494Z,970.01
2017-04-25T11:25:32.754Z,970.02
2017-04-25T11:26:43.014Z,969.88
2017-04-25T11:27:53.021Z,969.92
2017-04-25T11:29:03.288Z,970.01
2017-04-25T11:30:12.919Z,970.08
2017-04-25T11:31:22.873Z,969.97
2017-04-25T11:32:33.158Z,970.11
2017-04-25T11:33:43.429Z,970.13
2017-04-25T11:34:53.378Z,970.05
2017-04-25T11:36:03.325Z,970.01
2017-04-25T11:37:13.588Z,970.16
2017-04-25T11:38:23.539Z,970.11
2017-04-25T11:39:33.800Z,970.16
2017-04-25T11:40:44.080Z,970.01
2017-04-25T11:41:54.369Z,970.15
2017-04-25T11:43:04.003Z,970.16
2017-04-25T11:44:14.268Z,970.18
2017-04-25T11:45:24.535Z,970.17
2017-04-25T11:46:34.791Z,970.01
2017-04-25T11:47:45.054Z,970.13
2017-04-25T11:48:55.315Z,970.08
2017-04-25T11:50:05.583Z,970.15
2017-04-25T11:51:15.848Z,970.06
2017-04-25T11:52:25.794Z,970.12
2017-04-25T11:53:36.075Z,970.1
2017-04-25T11:54:46.036Z,970.17
2017-04-25T11:55:55.674Z,970.09
2017-04-25T11:57:05.943Z,970.17
2017-04-25T11:58:15.896Z,970.14
2017-04-25T11:59:26.158Z,970.2
2017-04-25T12:00:36.424Z,970.25
2017-04-25T12:01:46.373Z,970.29
2017-04-25T12:02:56.640Z,970.34
2017-04-25T12:04:06.911Z,970.31
2017-04-25T12:05:16.866Z,970.28
2017-04-25T12:06:27.132Z,970.25
2017-04-25T12:07:37.078Z,970.27
2017-04-25T12:08:47.028Z,970.23
2017-04-25T12:09:57.294Z,970.19
2017-04-25T12:11:07.554Z,970.24
2017-04-25T12:12:17.517Z,970.22
2017-04-25T12:13:27.778Z,970.27
2017-04-25T12:14:38.272Z,970.29
2017-04-25T12:15:48.222Z,970.25
2017-04-25T12:16:58.482Z,970.23
2017-04-25T12:18:08.429Z,970.31
2017-04-25T12:19:18.388Z,970.1
2017-04-25T12:20:28.651Z,970.49
2017-04-25T12:21:38.913Z,970.39
2017-04-25T12:22:49.176Z,970.38
2017-04-25T12:23:59.439Z,970.45
2017-04-25T12:25:09.391Z,970.36
2017-04-25T12:26:19.650Z,970.41
2017-04-25T12:27:29.908Z,970.35
2017-04-25T12:28:40.172Z,970.44
2017-04-25T12:29:50.128Z,970.32
2017-04-25T12:31:00.418Z,970.31
2017-04-25T12:32:10.359Z,970.27
2017-04-25T12:33:20.625Z,970.34
2017-04-25T12:34:30.881Z,970.22
2017-04-25T12:35:41.146Z,970.34
2017-04-25T12:36:51.093Z,970.4
2017-04-25T12:38:01.355Z,970.39
2017-04-25T12:39:11.612Z,970.39
2017-04-25T12:40:21.885Z,970.41
2017-04-25T12:41:32.159Z,970.32
2017-04-25T12:42:42.423Z,970.27
2017-04-25T12:43:52.690Z,970.35
2017-04-25T12:45:02.966Z,970.2
2017-04-25T12:46:13.225Z,970.38
2017-04-25T12:47:23.489Z,970.33
2017-04-25T12:48:33.753Z,970.26
2017-04-25T12:49:44.012Z,970.36
2017-04-25T12:50:54.276Z,970.41
2017-04-25T12:52:04.227Z,970.41
2017-04-25T12:53:14.174Z,970.39
2017-04-25T12:54:24.439Z,970.38
2017-04-25T12:55:34.702Z,970.42
2017-04-25T12:56:44.971Z,970.39
2017-04-25T12:57:55.234Z,970.55
2017-04-25T12:59:05.503Z,970.53
2017-04-25T13:00:15.133Z,970.45
2017-04-25T13:01:25.390Z,970.47
2017-04-25T13:02:35.329Z,970.5
2017-04-25T13:03:45.603Z,970.45
2017-04-25T13:04:55.871Z,970.46
2017-04-25T13:06:05.820Z,970.55
2017-04-25T13:07:15.768Z,970.56
2017-04-25T13:08:26.038Z,970.51
2017-04-25T13:09:36.305Z,970.43
2017-04-25T13:10:46.256Z,970.62
2017-04-25T13:11:56.525Z,970.52
2017-04-25T13:13:06.795Z,970.54
2017-04-25T13:14:17.062Z,970.64
2017-04-25T13:15:27.330Z,970.56
2017-04-25T13:16:37.595Z,970.54
2017-04-25T13:17:47.871Z,970.4
2017-04-25T13:18:58.163Z,970.5
2017-04-25T13:20:08.430Z,970.81
2017-04-25T13:21:18.374Z,970.86
2017-04-25T13:22:28.011Z,971
2017-04-25T13:23:38.296Z,971.08
2017-04-25T13:24:48.561Z,971
2017-04-25T13:25:58.512Z,971.09
2017-04-25T13:27:08.778Z,971.17
2017-04-25T13:28:18.723Z,971.26
2017-04-25T13:29:28.986Z,971.35
2017-04-25T13:30:39.279Z,971.27
2017-04-25T13:31:49.543Z,971.38
2017-04-25T13:32:58.553Z,971.48
2017-04-25T13:34:08.837Z,971.33
2017-04-25T13:35:19.107Z,971.27
2017-04-25T13:36:29.050Z,971.39
2017-04-25T13:37:39.015Z,971.31
2017-04-25T13:38:49.282Z,971.23
2017-04-25T13:39:59.236Z,971.36
2017-04-25T13:41:09.186Z,971.41
2017-04-25T13:42:18.815Z,971.46
2017-04-25T13:43:27.513Z,971.33
2017-04-25T13:44:37.772Z,971.46
2017-04-25T13:45:48.040Z,971.34
2017-04-25T13:46:58.319Z,971.33
2017-04-25T13:48:08.281Z,971.58
2017-04-25T13:49:18.237Z,971.52
2017-04-25T13:50:28.517Z,970.49
2017-04-25T13:51:38.778Z,971.38
2017-04-25T13:52:47.482Z,971.58
2017-04-25T13:53:56.808Z,971.45
2017-04-25T13:55:07.074Z,971.36
2017-04-25T13:56:17.348Z,971.4
2017-04-25T13:57:27.620Z,971.42
2017-04-25T13:58:37.890Z,971.44
2017-04-25T13:59:48.192Z,971.42
2017-04-25T14:00:58.486Z,971.5
2017-04-25T14:02:08.759Z,971.58
2017-04-25T14:03:18.093Z,971.46
2017-04-25T14:04:27.438Z,971.66
2017-04-25T14:05:37.710Z,971.53
2017-04-25T14:06:47.981Z,970.97
2017-04-25T14:07:58.276Z,971.42
2017-04-25T14:09:08.550Z,971.35
2017-04-25T14:10:18.845Z,971.66
2017-04-25T14:11:29.122Z,971.29
2017-04-25T14:12:38.776Z,971.24
2017-04-25T14:13:48.111Z,971.17
2017-04-25T14:14:57.131Z,971.41
2017-04-25T14:16:07.404Z,970.93
2017-04-25T14:17:17.364Z,970.89
2017-04-25T14:18:27.326Z,970.84
2017-04-25T14:19:37.592Z,970.81
2017-04-25T14:20:47.868Z,971.02
2017-04-25T14:21:58.146Z,971.4
2017-04-25T14:23:06.874Z,971.08
2017-04-25T14:24:15.576Z,971.92
2017-04-25T14:25:24.310Z,972.28
2017-04-25T14:26:33.326Z,970.75
2017-04-25T14:27:42.653Z,970.87
2017-04-25T14:28:52.925Z,971.12
2017-04-25T14:30:03.216Z,970.9
2017-04-25T14:31:13.166Z,970.85
2017-04-25T14:32:22.492Z,970.95
2017-04-25T14:33:31.514Z,970.71
2017-04-25T14:34:41.152Z,970.96
2017-04-25T14:35:50.168Z,971.07
2017-04-25T14:36:59.490Z,972.19
2017-04-25T14:38:08.497Z,970.96
2017-04-25T14:39:18.766Z,970.98